Time;durP1;ratioP1;P1;durP2;ratioP2;P2;SDS_P1;SDS_P2;PMS_P1;PMS_P2;Temp;Humidity;BMP_temperature;BMP_pressure;BME280_temperature;BME280_humidity;BME280_pressure;Samples;Min_cycle;Max_cycle;Signal;HPM_P1;HPM_P2
2021/03/07 00:01:31;;;;;;;11.50;4.45;;;-1.20;99.90;;;;;;1915881;73;21076;-75
2021/03/07 00:03:57;;;;;;;6.50;4.40;;;-1.30;99.90;;;;;;1916527;73;21165;-74
2021/03/07 00:06:23;;;;;;;8.60;4.65;;;-1.30;99.90;;;;;;1920372;72;21175;-75
2021/03/07 00:08:49;;;;;;;9.13;4.17;;;-1.20;99.90;;;;;;1925488;72;21134;-75
2021/03/07 00:11:15;;;;;;;5.55;4.10;;;-1.20;99.90;;;;;;1928151;73;21158;-75
2021/03/07 00:13:41;;;;;;;7.12;3.95;;;-1.30;99.90;;;;;;1932794;72;21171;-75
2021/03/07 00:16:07;;;;;;;8.20;3.85;;;-1.50;99.90;;;;;;1915570;73;21562;-75
2021/03/07 00:18:34;;;;;;;7.65;3.95;;;-1.50;99.90;;;;;;1915603;73;21538;-75
2021/03/07 00:21:00;;;;;;;5.85;3.65;;;-1.50;99.90;;;;;;1927220;74;21485;-74
2021/03/07 00:23:26;;;;;;;10.45;3.98;;;-1.50;99.90;;;;;;1927629;72;21487;-76
2021/03/07 00:25:52;;;;;;;5.75;3.70;;;-1.50;99.90;;;;;;1921879;73;21554;-75
2021/03/07 00:28:18;;;;;;;8.70;4.22;;;-1.50;99.90;;;;;;1920330;73;21142;-74
2021/03/07 00:30:44;;;;;;;9.18;4.25;;;-1.50;99.90;;;;;;1937458;72;21154;-74
2021/03/07 00:33:10;;;;;;;6.62;3.90;;;-1.50;99.90;;;;;;1929691;72;21042;-74
2021/03/07 00:35:36;;;;;;;6.37;4.22;;;-1.50;99.90;;;;;;1937670;73;21145;-75
2021/03/07 00:38:03;;;;;;;9.73;4.80;;;-1.40;99.90;;;;;;1926475;74;21239;-75
2021/03/07 00:40:29;;;;;;;5.70;4.00;;;-1.40;99.90;;;;;;1920302;73;21072;-75
2021/03/07 00:42:55;;;;;;;5.08;3.60;;;-1.40;99.90;;;;;;1921855;72;21116;-75
2021/03/07 00:45:21;;;;;;;8.55;4.20;;;-1.50;99.90;;;;;;1925046;72;21042;-75
2021/03/07 00:47:47;;;;;;;9.23;3.80;;;-1.50;99.90;;;;;;1920925;73;21076;-74
2021/03/07 00:50:13;;;;;;;8.38;4.15;;;-1.40;99.90;;;;;;1918476;72;21076;-75
2021/03/07 00:52:39;;;;;;;8.53;3.85;;;-1.40;99.90;;;;;;1930466;72;21076;-74
2021/03/07 00:55:05;;;;;;;7.05;4.17;;;-1.40;99.90;;;;;;1921939;72;21081;-74
2021/03/07 00:57:32;;;;;;;8.03;4.30;;;-1.50;99.90;;;;;;1925478;72;21079;-76
2021/03/07 00:59:58;;;;;;;8.88;4.35;;;-1.60;99.90;;;;;;1929659;72;21088;-73
2021/03/07 01:02:24;;;;;;;7.62;3.80;;;-1.60;99.90;;;;;;1924758;72;21476;-75
2021/03/07 01:04:50;;;;;;;4.97;3.27;;;-1.70;99.90;;;;;;1927208;73;21343;-75
2021/03/07 01:07:16;;;;;;;8.43;3.95;;;-1.70;99.90;;;;;;1925361;72;21449;-76
2021/03/07 01:09:42;;;;;;;5.53;3.00;;;-1.60;99.90;;;;;;1920849;72;21566;-74
2021/03/07 01:12:08;;;;;;;6.05;3.05;;;-1.60;99.90;;;;;;1919586;73;21167;-75
2021/03/07 01:14:34;;;;;;;6.15;2.95;;;-1.70;99.90;;;;;;1936062;73;21076;-75
2021/03/07 01:17:00;;;;;;;4.87;2.80;;;-1.80;99.90;;;;;;1922011;73;21151;-75
2021/03/07 01:19:27;;;;;;;7.33;3.08;;;-1.90;99.90;;;;;;1923590;72;21046;-74
2021/03/07 01:21:53;;;;;;;4.62;3.00;;;-1.90;99.90;;;;;;1937246;73;21080;-75
2021/03/07 01:24:19;;;;;;;8.63;3.65;;;-1.80;99.90;;;;;;1923363;72;21088;-75
2021/03/07 01:26:45;;;;;;;3.72;2.87;;;-1.80;99.90;;;;;;1922937;73;21104;-75
2021/03/07 01:29:11;;;;;;;7.65;3.17;;;-1.80;99.90;;;;;;1933587;72;21223;-75
2021/03/07 01:31:37;;;;;;;5.58;3.00;;;-1.90;99.90;;;;;;1920453;72;21062;-75
2021/03/07 01:34:03;;;;;;;7.28;3.25;;;-1.90;99.90;;;;;;1929350;72;21074;-75
2021/03/07 01:36:29;;;;;;;7.12;3.95;;;-1.90;99.90;;;;;;1934206;73;21072;-75
2021/03/07 01:38:56;;;;;;;7.60;3.27;;;-2.00;99.90;;;;;;1936852;72;21197;-75
2021/03/07 01:41:22;;;;;;;4.67;2.90;;;-2.00;99.90;;;;;;1927384;73;21045;-76
2021/03/07 01:43:48;;;;;;;6.33;3.42;;;-2.10;99.90;;;;;;1926127;73;21158;-74
2021/03/07 01:46:17;;;;;;;5.58;2.95;;;-2.10;99.90;;;;;;1916413;73;21155;-75
2021/03/07 01:48:42;;;;;;;4.17;3.05;;;-2.10;99.90;;;;;;1922664;73;21116;-75
2021/03/07 01:51:08;;;;;;;6.53;3.58;;;-2.00;99.90;;;;;;1916265;73;21272;-75
2021/03/07 01:53:34;;;;;;;5.58;3.08;;;-2.10;99.90;;;;;;1920427;73;21132;-75
2021/03/07 01:56:00;;;;;;;5.37;2.77;;;-2.00;99.90;;;;;;1920571;72;21077;-75
2021/03/07 01:58:26;;;;;;;4.62;3.10;;;-2.10;99.90;;;;;;1926651;72;21080;-75
2021/03/07 02:00:52;;;;;;;3.58;2.67;;;-2.10;99.90;;;;;;1931567;72;21081;-75
2021/03/07 02:03:18;;;;;;;4.97;3.40;;;-2.00;99.90;;;;;;1922173;73;21096;-75
2021/03/07 02:05:45;;;;;;;5.67;3.85;;;-2.00;99.90;;;;;;1926482;73;21532;-75
2021/03/07 02:08:11;;;;;;;10.82;4.55;;;-2.10;99.90;;;;;;1915759;73;21637;-76
2021/03/07 02:10:37;;;;;;;16.00;4.05;;;-2.10;99.90;;;;;;1921997;73;21504;-75
2021/03/07 02:13:03;;;;;;;9.03;3.83;;;-2.10;99.90;;;;;;1924327;73;21422;-75
2021/03/07 02:15:29;;;;;;;6.53;3.87;;;-2.10;99.90;;;;;;1923619;73;21099;-75
2021/03/07 02:17:55;;;;;;;8.73;3.65;;;-2.10;99.90;;;;;;1920975;72;21072;-74
2021/03/07 02:20:21;;;;;;;7.22;3.80;;;-2.10;99.90;;;;;;1920876;72;21081;-72
2021/03/07 02:22:47;;;;;;;7.80;3.33;;;-2.10;99.90;;;;;;1926841;72;21170;-73
2021/03/07 02:25:14;;;;;;;6.33;3.75;;;-2.20;99.90;;;;;;1929428;72;21232;-74
2021/03/07 02:27:40;;;;;;;8.03;3.98;;;-2.10;99.90;;;;;;1925457;73;21162;-73
2021/03/07 02:30:06;;;;;;;8.58;3.90;;;-2.10;99.90;;;;;;1915705;74;21085;-73
2021/03/07 02:32:32;;;;;;;5.30;2.98;;;-2.20;99.90;;;;;;1925108;72;21162;-73
2021/03/07 02:34:58;;;;;;;5.30;3.92;;;-2.30;99.90;;;;;;1937150;72;21096;-73
2021/03/07 02:37:24;;;;;;;5.78;3.30;;;-2.40;99.90;;;;;;1935605;72;21613;-74
2021/03/07 02:39:51;;;;;;;7.12;3.98;;;-2.40;99.90;;;;;;1923477;72;21473;-73
2021/03/07 02:42:17;;;;;;;4.87;3.67;;;-2.50;99.90;;;;;;1920367;73;21115;-73
2021/03/07 02:44:43;;;;;;;6.10;3.17;;;-2.60;99.90;;;;;;1915609;74;21162;-74
2021/03/07 02:47:09;;;;;;;6.12;3.75;;;-2.60;99.90;;;;;;1922472;73;21077;-73
2021/03/07 02:49:35;;;;;;;10.43;3.67;;;-2.60;99.90;;;;;;1934447;72;21279;-73
2021/03/07 02:52:02;;;;;;;9.93;4.28;;;-2.60;99.90;;;;;;1928694;72;21045;-72
2021/03/07 02:54:28;;;;;;;6.42;3.65;;;-2.60;99.90;;;;;;1920158;73;21083;-73
2021/03/07 02:56:55;;;;;;;8.50;3.75;;;-2.70;99.90;;;;;;1926649;72;21081;-73
2021/03/07 02:59:21;;;;;;;6.85;3.83;;;-2.60;99.90;;;;;;1920437;74;21165;-73
2021/03/07 03:01:47;;;;;;;5.72;3.45;;;-2.60;99.90;;;;;;1925386;73;21076;-74
2021/03/07 03:04:14;;;;;;;6.42;3.37;;;-2.50;99.90;;;;;;1921153;73;21216;-72
2021/03/07 03:06:40;;;;;;;7.15;3.77;;;-2.60;99.90;;;;;;1915465;73;21248;-72
2021/03/07 03:09:06;;;;;;;5.17;3.70;;;-2.70;99.90;;;;;;1930719;72;21076;-74
2021/03/07 03:11:32;;;;;;;4.97;3.50;;;-2.70;99.90;;;;;;1929648;72;21069;-72
2021/03/07 03:13:58;;;;;;;5.20;3.52;;;-2.60;99.90;;;;;;1917444;73;21150;-72
2021/03/07 03:16:24;;;;;;;5.28;3.80;;;-2.70;99.90;;;;;;1923587;72;21064;-72
2021/03/07 03:18:50;;;;;;;5.12;3.60;;;-2.60;99.90;;;;;;1932203;73;21081;-73
2021/03/07 03:21:16;;;;;;;7.00;3.95;;;-2.70;99.90;;;;;;1925540;72;21037;-74
2021/03/07 03:23:43;;;;;;;6.62;3.90;;;-2.70;99.90;;;;;;1916068;73;21381;-73
2021/03/07 03:26:09;;;;;;;6.08;3.42;;;-2.80;99.90;;;;;;1935368;72;21068;-73
2021/03/07 03:28:35;;;;;;;7.33;4.12;;;-2.70;99.90;;;;;;1931080;72;21128;-72
2021/03/07 03:31:01;;;;;;;7.50;3.80;;;-2.80;99.90;;;;;;1921492;73;21068;-74
2021/03/07 03:33:27;;;;;;;8.80;4.15;;;-2.80;99.90;;;;;;1926577;73;21041;-73
2021/03/07 03:35:53;;;;;;;4.65;3.40;;;-2.80;99.90;;;;;;1924612;72;21076;-73
2021/03/07 03:38:19;;;;;;;4.47;3.35;;;-2.90;99.90;;;;;;1924885;72;21086;-73
2021/03/07 03:40:45;;;;;;;6.28;3.75;;;-3.00;99.90;;;;;;1925932;73;21511;-73
2021/03/07 03:43:12;;;;;;;5.97;3.20;;;-3.10;99.90;;;;;;1927835;72;21501;-73
2021/03/07 03:45:38;;;;;;;10.32;3.60;;;-3.20;99.90;;;;;;1928512;73;21492;-73
2021/03/07 03:48:04;;;;;;;4.03;2.98;;;-3.10;99.90;;;;;;1920148;73;21549;-74
2021/03/07 03:50:30;;;;;;;4.80;2.92;;;-3.10;99.90;;;;;;1924859;72;21095;-73
2021/03/07 03:52:56;;;;;;;8.58;3.75;;;-3.10;99.90;;;;;;1920178;74;21076;-73
2021/03/07 03:55:22;;;;;;;4.28;2.90;;;-3.10;99.90;;;;;;1931183;73;21139;-73
2021/03/07 03:57:48;;;;;;;4.78;3.05;;;-3.20;99.90;;;;;;1915491;73;21077;-73
2021/03/07 04:00:14;;;;;;;5.85;3.67;;;-3.00;99.90;;;;;;1933494;72;21077;-71
2021/03/07 04:02:40;;;;;;;5.22;3.17;;;-3.00;99.90;;;;;;1917742;73;21072;-73
2021/03/07 04:05:07;;;;;;;3.52;3.02;;;-3.00;99.90;;;;;;1924279;72;21085;-73
2021/03/07 04:07:33;;;;;;;6.55;3.60;;;-3.00;99.90;;;;;;1928274;72;21072;-73
2021/03/07 04:09:59;;;;;;;4.60;2.80;;;-3.00;99.90;;;;;;1915404;73;21077;-72
2021/03/07 04:12:25;;;;;;;4.20;3.22;;;-3.00;99.90;;;;;;1935816;72;21076;-73
2021/03/07 04:14:51;;;;;;;4.45;3.30;;;-3.00;99.90;;;;;;1924998;72;21142;-73
2021/03/07 04:17:17;;;;;;;8.25;3.15;;;-3.10;99.90;;;;;;1920071;73;21049;-73
2021/03/07 04:19:43;;;;;;;4.10;2.58;;;-3.20;99.90;;;;;;1920244;73;21154;-72
2021/03/07 04:22:09;;;;;;;6.58;3.72;;;-3.10;99.90;;;;;;1926390;73;21296;-73
2021/03/07 04:24:36;;;;;;;4.97;2.85;;;-3.10;99.90;;;;;;1924957;72;21135;-73
2021/03/07 04:27:02;;;;;;;7.15;3.58;;;-3.10;99.90;;;;;;1926417;72;21485;-73
2021/03/07 04:29:28;;;;;;;5.42;3.40;;;-3.10;99.90;;;;;;1920220;73;21442;-73
2021/03/07 04:31:54;;;;;;;9.23;4.33;;;-3.10;99.90;;;;;;1926261;72;21566;-72
2021/03/07 04:34:20;;;;;;;4.40;2.72;;;-3.10;99.90;;;;;;1931204;72;21501;-73
2021/03/07 04:36:46;;;;;;;4.45;3.02;;;-3.20;99.90;;;;;;1933646;72;21260;-72
2021/03/07 04:39:13;;;;;;;4.47;3.05;;;-3.10;99.90;;;;;;1927054;72;21073;-73
2021/03/07 04:41:39;;;;;;;6.70;3.47;;;-3.10;99.90;;;;;;1921312;73;21057;-75
2021/03/07 04:44:05;;;;;;;6.53;3.67;;;-3.20;99.90;;;;;;1918363;73;21041;-73
2021/03/07 04:46:31;;;;;;;6.30;2.85;;;-3.20;99.90;;;;;;1925611;72;21076;-73
2021/03/07 04:48:57;;;;;;;6.12;3.80;;;-3.20;99.90;;;;;;1922167;73;21080;-72
2021/03/07 04:51:23;;;;;;;7.20;3.50;;;-3.20;99.90;;;;;;1920976;73;21133;-73
2021/03/07 04:53:49;;;;;;;4.37;3.10;;;-3.20;99.90;;;;;;1920729;72;21041;-73
2021/03/07 04:56:15;;;;;;;8.55;3.67;;;-3.20;99.90;;;;;;1916112;74;21567;-73
2021/03/07 04:58:42;;;;;;;5.22;3.70;;;-3.20;99.90;;;;;;1920782;73;21492;-73
2021/03/07 05:01:08;;;;;;;6.45;3.55;;;-3.30;99.90;;;;;;1920710;73;21574;-73
2021/03/07 05:03:34;;;;;;;5.90;3.27;;;-3.30;99.90;;;;;;1925432;74;21073;-72
2021/03/07 05:06:00;;;;;;;4.67;3.47;;;-3.40;99.90;;;;;;1920752;73;21043;-73
2021/03/07 05:08:26;;;;;;;5.15;3.20;;;-3.30;99.90;;;;;;1916025;73;21108;-73
2021/03/07 05:10:52;;;;;;;6.40;3.75;;;-3.30;99.90;;;;;;1930831;72;21077;-73
2021/03/07 05:13:18;;;;;;;7.12;3.70;;;-3.30;99.90;;;;;;1930101;72;21192;-73
2021/03/07 05:15:44;;;;;;;5.78;3.15;;;-3.30;99.90;;;;;;1920835;73;21069;-73
2021/03/07 05:18:10;;;;;;;7.08;3.40;;;-3.40;99.90;;;;;;1926857;72;21074;-73
2021/03/07 05:20:37;;;;;;;7.03;3.12;;;-3.30;99.90;;;;;;1915898;73;21081;-73
2021/03/07 05:23:03;;;;;;;4.67;3.27;;;-3.40;99.90;;;;;;1930113;72;21113;-73
2021/03/07 05:25:29;;;;;;;7.67;3.58;;;-3.40;99.90;;;;;;1920595;73;21150;-73
2021/03/07 05:27:55;;;;;;;5.33;3.47;;;-3.50;99.90;;;;;;1920631;72;21045;-73
2021/03/07 05:30:21;;;;;;;3.52;2.67;;;-3.50;99.90;;;;;;1925520;72;21154;-72
2021/03/07 05:32:47;;;;;;;5.40;3.00;;;-3.40;99.90;;;;;;1923037;73;21084;-73
2021/03/07 05:35:13;;;;;;;5.90;3.27;;;-3.30;99.90;;;;;;1919338;73;21155;-73
2021/03/07 05:37:39;;;;;;;7.95;3.52;;;-3.30;99.90;;;;;;1915863;73;21166;-73
2021/03/07 05:40:06;;;;;;;4.42;3.37;;;-3.40;99.90;;;;;;1922346;73;21492;-73
2021/03/07 05:42:32;;;;;;;6.72;3.75;;;-3.30;99.90;;;;;;1918704;72;21554;-73
2021/03/07 05:44:58;;;;;;;5.53;3.30;;;-3.40;99.90;;;;;;1921667;72;21496;-73
2021/03/07 05:47:24;;;;;;;7.80;3.20;;;-3.40;99.90;;;;;;1931953;72;21504;-73
2021/03/07 05:49:50;;;;;;;4.40;2.87;;;-3.40;99.90;;;;;;1922288;73;21077;-73
2021/03/07 05:52:16;;;;;;;3.80;3.00;;;-3.40;99.90;;;;;;1926967;73;21180;-73
2021/03/07 05:54:42;;;;;;;4.50;3.05;;;-3.40;99.90;;;;;;1928551;73;21077;-73
2021/03/07 05:57:08;;;;;;;4.62;2.90;;;-3.50;99.90;;;;;;1927060;72;21076;-73
2021/03/07 05:59:35;;;;;;;4.20;3.05;;;-3.40;99.90;;;;;;1928235;72;21090;-73
2021/03/07 06:02:02;;;;;;;4.62;3.15;;;-3.30;99.90;;;;;;1931082;72;21104;-73
2021/03/07 06:04:28;;;;;;;6.15;4.03;;;-3.40;99.90;;;;;;1941528;72;21076;-73
2021/03/07 06:06:54;;;;;;;9.65;3.10;;;-3.20;99.90;;;;;;1926657;73;21236;-73
2021/03/07 06:09:21;;;;;;;6.33;3.62;;;-3.30;99.90;;;;;;1920681;73;21138;-73
2021/03/07 06:11:47;;;;;;;9.28;3.77;;;-3.40;99.90;;;;;;1920710;73;21135;-73
2021/03/07 06:14:13;;;;;;;4.62;3.20;;;-3.30;99.90;;;;;;1925579;72;21068;-73
2021/03/07 06:16:40;;;;;;;6.67;3.05;;;-3.20;99.90;;;;;;1920567;72;21077;-73
2021/03/07 06:19:06;;;;;;;7.87;3.27;;;-3.20;99.90;;;;;;1920822;73;21061;-73
2021/03/07 06:21:32;;;;;;;5.72;3.52;;;-3.10;99.90;;;;;;1941239;72;21065;-73
2021/03/07 06:23:58;;;;;;;5.47;3.22;;;-3.10;99.90;;;;;;1916006;73;21147;-73
2021/03/07 06:26:24;;;;;;;4.92;3.45;;;-3.10;99.90;;;;;;1930221;72;21170;-73
2021/03/07 06:28:50;;;;;;;6.60;3.67;;;-3.10;99.90;;;;;;1916045;73;21073;-73
2021/03/07 06:31:16;;;;;;;8.50;3.98;;;-3.10;99.90;;;;;;1920604;72;21049;-73
2021/03/07 06:33:42;;;;;;;6.03;3.55;;;-3.10;99.90;;;;;;1916172;73;21081;-73
2021/03/07 06:36:09;;;;;;;6.40;3.62;;;-3.10;99.90;;;;;;1926927;72;21093;-73
2021/03/07 06:38:35;;;;;;;5.78;4.00;;;-3.00;99.90;;;;;;1930039;73;21081;-73
2021/03/07 06:41:01;;;;;;;9.98;3.65;;;-2.90;99.90;;;;;;1928793;72;21080;-72
2021/03/07 06:43:30;;;;;;;4.72;3.30;;;-2.80;99.90;;;;;;1922379;72;21461;-73
2021/03/07 06:45:55;;;;;;;4.50;3.02;;;-2.80;99.90;;;;;;1920723;72;21138;-74
2021/03/07 06:48:21;;;;;;;10.30;3.30;;;-2.80;99.90;;;;;;1931688;72;21084;-74
2021/03/07 06:50:47;;;;;;;5.33;3.47;;;-2.70;99.90;;;;;;1916201;73;21085;-74
2021/03/07 06:53:13;;;;;;;6.72;3.83;;;-2.70;99.90;;;;;;1920727;73;21053;-74
2021/03/07 06:55:39;;;;;;;6.37;3.50;;;-2.70;99.90;;;;;;1933463;73;21076;-74
2021/03/07 06:58:05;;;;;;;10.60;3.30;;;-2.60;99.90;;;;;;1930278;72;21497;-73
2021/03/07 07:00:33;;;;;;;5.80;3.70;;;-2.60;99.90;;;;;;1928554;73;21484;-73
2021/03/07 07:02:59;;;;;;;8.50;4.03;;;-2.50;99.90;;;;;;1916008;74;22575;-73
2021/03/07 07:05:25;;;;;;;6.75;3.40;;;-2.50;99.90;;;;;;1922154;73;21168;-73
2021/03/07 07:07:51;;;;;;;7.83;3.83;;;-2.40;99.90;;;;;;1927168;73;21073;-76
2021/03/07 07:10:18;;;;;;;9.43;4.00;;;-2.40;99.90;;;;;;1920366;72;21080;-73
2021/03/07 07:12:44;;;;;;;14.23;3.83;;;-2.30;99.90;;;;;;1928996;72;21084;-75
2021/03/07 07:15:10;;;;;;;6.85;4.22;;;-2.10;99.90;;;;;;1919633;73;21496;-73
2021/03/07 07:17:36;;;;;;;7.45;4.12;;;-2.10;99.90;;;;;;1927048;73;21120;-75
2021/03/07 07:20:02;;;;;;;8.50;3.80;;;-2.10;99.90;;;;;;1936887;72;21078;-74
2021/03/07 07:22:29;;;;;;;9.68;4.10;;;-1.90;99.90;;;;;;1924963;74;21182;-74
2021/03/07 07:24:55;;;;;;;7.62;3.80;;;-1.80;99.90;;;;;;1923029;73;21084;-74
2021/03/07 07:27:22;;;;;;;5.40;3.17;;;-1.60;99.90;;;;;;1925574;73;21076;-74
2021/03/07 07:29:48;;;;;;;5.95;3.67;;;-1.50;99.90;;;;;;1924175;72;21088;-74
2021/03/07 07:32:14;;;;;;;12.80;3.50;;;-1.30;99.90;;;;;;1920743;72;21037;-74
2021/03/07 07:34:40;;;;;;;6.97;3.92;;;-1.10;99.90;;;;;;1920806;73;21081;-75
2021/03/07 07:37:06;;;;;;;6.45;3.40;;;-1.10;99.90;;;;;;1920823;74;21117;-75
2021/03/07 07:39:32;;;;;;;6.40;3.52;;;-0.90;99.90;;;;;;1917952;72;21084;-73
2021/03/07 07:41:59;;;;;;;9.50;3.27;;;-0.70;99.90;;;;;;1929727;73;21076;-74
2021/03/07 07:44:25;;;;;;;7.12;3.62;;;-0.60;99.90;;;;;;1918277;72;21049;-74
2021/03/07 07:46:51;;;;;;;4.72;3.17;;;-0.30;99.90;;;;;;1939721;72;21138;-73
2021/03/07 07:49:17;;;;;;;4.22;2.80;;;-0.20;99.90;;;;;;1927691;72;21169;-78
2021/03/07 07:51:43;;;;;;;3.58;2.80;;;-0.10;99.90;;;;;;1920888;72;21546;-77
2021/03/07 07:54:09;;;;;;;4.17;2.70;;;-0.10;99.90;;;;;;1923573;72;21497;-80
2021/03/07 07:56:35;;;;;;;4.40;2.95;;;0.00;99.90;;;;;;1917598;73;21585;-83
2021/03/07 07:59:02;;;;;;;3.45;2.52;;;0.00;99.90;;;;;;1925439;72;21072;-78
2021/03/07 08:01:28;;;;;;;4.97;2.65;;;0.10;99.90;;;;;;1925444;73;21158;-79
2021/03/07 08:03:54;;;;;;;4.53;2.95;;;0.30;99.90;;;;;;1921058;72;21041;-82
2021/03/07 08:06:20;;;;;;;5.45;2.83;;;0.40;99.90;;;;;;1936872;72;21495;-77
2021/03/07 08:08:46;;;;;;;4.42;3.05;;;0.40;99.90;;;;;;1925694;72;21664;-77
2021/03/07 08:11:12;;;;;;;3.80;2.90;;;0.40;99.90;;;;;;1927788;72;21558;-76
2021/03/07 08:13:38;;;;;;;8.60;3.83;;;0.60;99.90;;;;;;1930205;73;21150;-77
2021/03/07 08:16:04;;;;;;;4.60;2.92;;;0.50;99.90;;;;;;1922477;73;21143;-75
2021/03/07 08:18:30;;;;;;;6.67;3.70;;;0.60;99.90;;;;;;1915967;73;21088;-79
2021/03/07 08:20:57;;;;;;;5.60;3.33;;;0.70;99.90;;;;;;1928588;72;21092;-72
2021/03/07 08:23:23;;;;;;;4.97;3.15;;;0.80;99.90;;;;;;1931921;72;21147;-78
2021/03/07 08:25:49;;;;;;;3.52;2.70;;;1.00;99.90;;;;;;1920844;72;21076;-78
2021/03/07 08:28:15;;;;;;;3.85;2.92;;;1.20;99.90;;;;;;1922466;73;21080;-77
2021/03/07 08:30:41;;;;;;;8.43;3.37;;;1.50;99.90;;;;;;1921752;74;21119;-75
2021/03/07 08:33:07;;;;;;;7.12;3.12;;;1.90;99.90;;;;;;1929951;72;21182;-78
2021/03/07 08:35:33;;;;;;;6.17;3.25;;;2.00;99.90;;;;;;1926651;72;21076;-80
2021/03/07 08:37:59;;;;;;;4.05;3.12;;;2.30;99.90;;;;;;1923866;73;21033;-79
2021/03/07 08:40:26;;;;;;;3.58;3.08;;;2.50;99.90;;;;;;1939663;72;21517;-81
2021/03/07 08:42:52;;;;;;;4.87;3.02;;;2.70;99.90;;;;;;1927690;72;21627;-78
2021/03/07 08:45:18;;;;;;;3.62;2.80;;;2.80;99.90;;;;;;1922123;73;21489;-77
2021/03/07 08:47:44;;;;;;;8.33;2.95;;;3.00;99.90;;;;;;1926834;73;21080;-77
2021/03/07 08:50:10;;;;;;;4.12;3.17;;;2.80;99.90;;;;;;1936789;72;21150;-77
2021/03/07 08:52:36;;;;;;;4.80;3.42;;;2.90;99.90;;;;;;1925628;72;21070;-77
2021/03/07 08:55:02;;;;;;;5.05;3.10;;;2.80;99.90;;;;;;1920828;73;21159;-78
2021/03/07 08:57:28;;;;;;;5.30;3.37;;;2.90;99.90;;;;;;1920692;72;21170;-77
2021/03/07 08:59:55;;;;;;;4.90;2.90;;;3.40;99.90;;;;;;1916614;73;21042;-77
2021/03/07 09:02:21;;;;;;;4.60;3.08;;;3.90;99.90;;;;;;1919764;72;21140;-77
2021/03/07 09:04:47;;;;;;;6.00;2.98;;;4.30;99.90;;;;;;1920776;72;21524;-76
2021/03/07 09:07:13;;;;;;;9.70;3.30;;;4.40;99.90;;;;;;1920817;74;21509;-78
2021/03/07 09:09:39;;;;;;;9.68;3.70;;;4.50;99.90;;;;;;1927121;73;21558;-74
2021/03/07 09:12:05;;;;;;;6.78;3.40;;;5.00;99.90;;;;;;1925383;73;21072;-74
2021/03/07 09:14:31;;;;;;;4.85;2.80;;;5.30;99.90;;;;;;1922315;73;21164;-73
2021/03/07 09:16:57;;;;;;;6.05;3.05;;;5.40;99.90;;;;;;1937396;72;21041;-76
2021/03/07 09:19:24;;;;;;;2.98;2.40;;;5.90;99.90;;;;;;1931220;72;21072;-74
2021/03/07 09:21:50;;;;;;;3.33;2.60;;;5.60;99.90;;;;;;1929338;73;21069;-72
2021/03/07 09:24:16;;;;;;;4.78;3.02;;;5.40;99.90;;;;;;1929474;73;21077;-70
2021/03/07 09:26:42;;;;;;;4.28;2.52;;;5.80;99.90;;;;;;1933573;72;21142;-72
2021/03/07 09:29:08;;;;;;;4.90;2.83;;;5.90;99.90;;;;;;1925095;73;21158;-73
2021/03/07 09:31:34;;;;;;;4.60;3.27;;;6.30;99.90;;;;;;1924802;74;21038;-74
2021/03/07 09:34:00;;;;;;;5.92;3.08;;;6.50;99.90;;;;;;1921433;73;21434;-73
2021/03/07 09:36:26;;;;;;;4.67;2.83;;;7.00;99.90;;;;;;1934980;73;21116;-72
2021/03/07 09:38:53;;;;;;;4.20;2.77;;;6.70;99.90;;;;;;1931714;73;21165;-72
2021/03/07 09:41:19;;;;;;;4.83;3.50;;;6.20;99.90;;;;;;1925440;72;21064;-72
2021/03/07 09:43:45;;;;;;;4.58;3.33;;;6.60;99.90;;;;;;1925404;72;21084;-73
2021/03/07 09:46:11;;;;;;;6.62;3.02;;;7.20;99.90;;;;;;1920699;74;21073;-73
2021/03/07 09:48:37;;;;;;;10.05;3.70;;;7.10;99.90;;;;;;1916172;73;21050;-72
2021/03/07 09:51:03;;;;;;;7.17;3.60;;;7.50;99.90;;;;;;1925720;72;21073;-74
2021/03/07 09:53:29;;;;;;;6.45;3.22;;;7.60;99.90;;;;;;1931919;72;21080;-74
2021/03/07 09:55:55;;;;;;;7.08;3.70;;;7.80;99.90;;;;;;1930951;72;21146;-74
2021/03/07 09:58:22;;;;;;;7.10;3.72;;;7.90;99.90;;;;;;1921509;74;21285;-75
2021/03/07 10:00:50;;;;;;;5.80;3.83;;;8.20;99.90;;;;;;1922523;72;21550;-75
2021/03/07 10:03:15;;;;;;;6.87;3.72;;;8.60;99.90;;;;;;1920563;72;21084;-74
2021/03/07 10:05:44;;;;;;;6.65;4.25;;;8.90;99.90;;;;;;1916179;73;21046;-78
2021/03/07 10:08:10;;;;;;;7.45;4.05;;;8.80;99.90;;;;;;1927094;72;21048;-74
2021/03/07 10:10:37;;;;;;;5.87;3.72;;;8.80;99.90;;;;;;1926915;72;21484;-74
2021/03/07 10:13:03;;;;;;;6.85;3.70;;;9.00;99.90;;;;;;1927207;73;21566;-73
2021/03/07 10:15:29;;;;;;;9.88;4.47;;;8.90;99.90;;;;;;1925524;73;21488;-75
2021/03/07 10:17:55;;;;;;;7.33;4.28;;;8.50;99.90;;;;;;1927086;72;21142;-76
2021/03/07 10:20:21;;;;;;;6.50;4.25;;;8.00;99.90;;;;;;1922428;72;21154;-78
2021/03/07 10:22:47;;;;;;;6.22;4.08;;;8.10;99.90;;;;;;1938079;73;21080;-74
2021/03/07 10:25:14;;;;;;;10.82;4.97;;;8.00;99.90;;;;;;1925544;72;21077;-73
2021/03/07 10:27:40;;;;;;;7.65;4.20;;;8.10;99.90;;;;;;1918823;73;21041;-76
2021/03/07 10:30:06;;;;;;;12.68;5.40;;;7.60;99.90;;;;;;1927110;73;21077;-75
2021/03/07 10:32:32;;;;;;;8.88;5.22;;;7.60;99.90;;;;;;1929558;72;21068;-76
2021/03/07 10:34:58;;;;;;;9.30;4.72;;;8.10;99.90;;;;;;1922809;72;21068;-74
2021/03/07 10:37:24;;;;;;;11.53;5.20;;;8.80;99.90;;;;;;1934646;73;21073;-72
2021/03/07 10:39:50;;;;;;;7.80;5.05;;;9.00;99.90;;;;;;1936599;72;21069;-71
2021/03/07 10:42:16;;;;;;;7.55;4.53;;;9.60;99.90;;;;;;1922917;73;21161;-74
2021/03/07 10:44:43;;;;;;;10.85;5.10;;;10.40;99.90;;;;;;1920659;74;21080;-75
2021/03/07 10:50:08;;;;;;;7.67;4.70;;;10.50;99.90;;;;;;2054548;69;27822;-72
2021/03/07 10:52:34;;;;;;;7.47;4.75;;;10.10;99.90;;;;;;2006230;70;21095;-69
2021/03/07 10:55:00;;;;;;;9.03;4.45;;;9.90;99.90;;;;;;1972336;73;21067;-71
2021/03/07 10:57:26;;;;;;;11.80;5.37;;;10.70;99.90;;;;;;2012322;70;21036;-69
2021/03/07 10:59:53;;;;;;;9.58;4.97;;;10.90;99.90;;;;;;1964992;72;21118;-71
2021/03/07 11:02:19;;;;;;;10.82;4.83;;;11.10;99.70;;;;;;2007836;70;21051;-73
2021/03/07 11:04:45;;;;;;;7.83;4.65;;;11.60;98.00;;;;;;2011043;70;21519;-71
2021/03/07 11:07:11;;;;;;;7.85;4.72;;;11.40;97.90;;;;;;2011166;70;21052;-70
2021/03/07 11:09:39;;;;;;;6.58;4.20;;;11.00;98.10;;;;;;2010995;70;21024;-73
2021/03/07 11:12:05;;;;;;;9.70;4.08;;;11.00;98.90;;;;;;2011103;71;21020;-70
2021/03/07 11:14:31;;;;;;;7.40;4.35;;;11.10;97.80;;;;;;2009400;70;21098;-70
2021/03/07 11:16:58;;;;;;;11.73;5.10;;;10.50;98.50;;;;;;2015143;71;21101;-71
2021/03/07 11:19:24;;;;;;;7.65;4.72;;;10.20;98.70;;;;;;2011118;71;21048;-71
2021/03/07 11:21:50;;;;;;;6.58;3.87;;;10.10;99.60;;;;;;2016160;70;21193;-71
2021/03/07 11:24:16;;;;;;;8.33;4.80;;;10.20;98.70;;;;;;1970678;73;20996;-71
2021/03/07 11:26:42;;;;;;;8.03;4.83;;;9.30;99.90;;;;;;2014204;70;21529;-75
2021/03/07 11:29:08;;;;;;;8.05;4.85;;;9.40;99.90;;;;;;2008614;70;21459;-71
2021/03/07 11:31:34;;;;;;;8.23;4.72;;;10.20;99.90;;;;;;1965818;72;21106;-72
2021/03/07 11:34:02;;;;;;;8.05;4.67;;;10.50;99.80;;;;;;2004589;70;21027;-74
2021/03/07 11:36:28;;;;;;;8.40;4.42;;;10.60;99.10;;;;;;1966930;72;21542;-76
2021/03/07 11:38:54;;;;;;;11.00;4.72;;;10.50;97.40;;;;;;2020665;70;21460;-75
2021/03/07 11:41:20;;;;;;;9.98;5.03;;;10.30;97.80;;;;;;2010718;70;21495;-75
2021/03/07 11:43:46;;;;;;;6.33;4.30;;;10.10;98.10;;;;;;2016244;70;21463;-74
2021/03/07 11:46:12;;;;;;;9.10;4.37;;;10.00;98.90;;;;;;2001610;70;21471;-76
2021/03/07 11:48:39;;;;;;;8.75;4.55;;;9.90;98.10;;;;;;2010316;70;21039;-74
2021/03/07 11:51:05;;;;;;;7.58;4.37;;;9.70;98.40;;;;;;1970891;72;21059;-73
2021/03/07 11:53:31;;;;;;;8.93;4.78;;;9.90;99.20;;;;;;1940593;73;21079;-73
2021/03/07 11:55:57;;;;;;;8.50;3.95;;;11.00;98.10;;;;;;2010555;70;21048;-73
2021/03/07 11:58:23;;;;;;;7.45;4.22;;;11.90;94.90;;;;;;2006555;70;21100;-73
2021/03/07 12:00:49;;;;;;;8.53;4.00;;;12.50;93.90;;;;;;1968179;72;21129;-73
2021/03/07 12:03:15;;;;;;;7.17;3.95;;;12.90;90.90;;;;;;2006885;70;21012;-78
2021/03/07 12:05:41;;;;;;;6.75;4.20;;;12.90;90.20;;;;;;2010437;71;21141;-80
2021/03/07 12:08:08;;;;;;;6.53;3.62;;;13.30;88.50;;;;;;2010347;70;21109;-78
2021/03/07 12:10:34;;;;;;;6.58;3.58;;;12.50;89.50;;;;;;2003195;70;21076;-75
2021/03/07 12:13:00;;;;;;;8.23;4.12;;;13.50;88.00;;;;;;1962185;72;21050;-71
2021/03/07 12:15:26;;;;;;;7.80;4.12;;;13.40;85.90;;;;;;2000265;70;21425;-69
2021/03/07 12:17:52;;;;;;;7.92;4.22;;;12.10;90.60;;;;;;2009762;70;21552;-69
2021/03/07 12:20:19;;;;;;;7.70;4.35;;;12.90;88.90;;;;;;2009585;70;21105;-68
2021/03/07 12:22:46;;;;;;;11.78;4.78;;;12.40;89.10;;;;;;2004992;70;21125;-69
2021/03/07 12:25:13;;;;;;;7.15;4.25;;;12.10;90.00;;;;;;1961169;72;21116;-69
2021/03/07 12:27:39;;;;;;;9.40;4.65;;;12.80;89.80;;;;;;2011669;71;21097;-69
2021/03/07 12:30:05;;;;;;;8.85;4.85;;;12.70;87.90;;;;;;2002024;70;21048;-74
2021/03/07 12:32:31;;;;;;;10.53;4.95;;;12.30;90.20;;;;;;2008160;70;21097;-73
2021/03/07 12:34:57;;;;;;;8.90;4.45;;;12.00;90.30;;;;;;2011198;70;21112;-73
2021/03/07 12:37:23;;;;;;;9.75;4.80;;;12.20;90.70;;;;;;2009861;70;21017;-74
2021/03/07 12:39:49;;;;;;;10.93;4.87;;;12.40;90.20;;;;;;2006558;70;21048;-74
2021/03/07 12:42:15;;;;;;;7.05;4.53;;;12.40;90.00;;;;;;2006131;70;21040;-73
2021/03/07 12:44:42;;;;;;;9.65;4.78;;;12.30;90.70;;;;;;2005949;70;21087;-74